createdAt,value
2023-01-19T00:00:49.926Z,99767.38
2023-01-19T00:03:17.924Z,99765.66
2023-01-19T00:05:44.972Z,99760.59
2023-01-19T00:08:14.991Z,99753.78
2023-01-19T00:10:53.231Z,99747.72
2023-01-19T00:13:19.723Z,99758.00
2023-01-19T00:15:46.226Z,99756.34
2023-01-19T00:18:12.755Z,99762.41
2023-01-19T00:20:40.297Z,99757.41
2023-01-19T00:23:08.101Z,99760.75
2023-01-19T00:25:35.424Z,99760.91
2023-01-19T00:28:02.102Z,99754.94
2023-01-19T00:30:29.121Z,99764.38
2023-01-19T00:32:55.993Z,99753.19
2023-01-19T00:35:22.444Z,99765.22
2023-01-19T00:37:49.186Z,99761.88
2023-01-19T00:40:16.010Z,99764.44
2023-01-19T00:42:44.403Z,99759.25
2023-01-19T00:45:14.948Z,99757.75
2023-01-19T00:47:41.923Z,99767.44
2023-01-19T00:50:11.642Z,99764.69
2023-01-19T00:52:41.950Z,99769.09
2023-01-19T00:55:10.677Z,99785.44
2023-01-19T00:57:38.079Z,99770.75
2023-01-19T01:00:07.935Z,99776.66
2023-01-19T01:02:35.124Z,99765.47
2023-01-19T01:05:02.903Z,99770.63
2023-01-19T01:07:30.273Z,99769.69
2023-01-19T01:09:57.366Z,99774.66
2023-01-19T01:12:23.831Z,99773.69
2023-01-19T01:14:50.354Z,99770.03
2023-01-19T01:17:16.816Z,99769.22
2023-01-19T01:19:43.259Z,99768.13
2023-01-19T01:22:10.007Z,99768.88
2023-01-19T01:24:36.667Z,99766.16
2023-01-19T01:27:03.195Z,99780.59
2023-01-19T01:29:29.637Z,99774.44
2023-01-19T01:31:56.225Z,99791.31
2023-01-19T01:34:22.689Z,99781.84
2023-01-19T01:36:49.166Z,99773.94
2023-01-19T01:39:15.639Z,99774.84
2023-01-19T01:41:42.091Z,99774.13
2023-01-19T01:44:50.160Z,99771.63
2023-01-19T01:47:32.605Z,99775.94
2023-01-19T01:50:05.089Z,99770.06
2023-01-19T01:52:34.192Z,99772.72
2023-01-19T01:55:03.024Z,99771.06
2023-01-19T01:57:30.087Z,99766.72
2023-01-19T01:59:58.480Z,99766.09
2023-01-19T02:02:48.653Z,99762.66
2023-01-19T02:05:34.710Z,99756.78
2023-01-19T02:08:25.892Z,99760.16
2023-01-19T02:11:10.698Z,99773.94
2023-01-19T02:13:43.756Z,99769.72
2023-01-19T02:16:11.556Z,99776.59
2023-01-19T02:18:38.454Z,99782.56
2023-01-19T02:21:24.147Z,99777.44
2023-01-19T02:23:58.936Z,99768.06
2023-01-19T02:26:29.607Z,99758.75
2023-01-19T02:28:59.275Z,99782.81
2023-01-19T02:31:26.945Z,99778.59
2023-01-19T02:33:54.174Z,99783.91
2023-01-19T02:36:25.910Z,99774.50
2023-01-19T02:38:56.166Z,99766.03
2023-01-19T02:41:29.767Z,99769.53
2023-01-19T02:43:58.574Z,99769.53
2023-01-19T02:46:25.870Z,99770.38
2023-01-19T02:48:52.389Z,99767.78
2023-01-19T02:51:24.592Z,99772.09
2023-01-19T02:54:01.369Z,99779.81
2023-01-19T02:56:36.833Z,99770.28
2023-01-19T02:59:10.126Z,99768.53
2023-01-19T03:02:00.708Z,99773.69
2023-01-19T03:04:48.551Z,99777.00
2023-01-19T03:07:24.694Z,99759.84
2023-01-19T03:10:26.370Z,99764.22
2023-01-19T03:13:03.321Z,99774.50
2023-01-19T03:15:54.281Z,99768.53
2023-01-19T03:18:26.188Z,99777.00
2023-01-19T03:20:55.284Z,99770.13
2023-01-19T03:23:27.333Z,99774.34
2023-01-19T03:25:57.525Z,99764.81
2023-01-19T03:28:28.177Z,99759.59
2023-01-19T03:31:21.259Z,99765.56
2023-01-19T03:33:51.248Z,99766.41
2023-01-19T03:36:27.481Z,99762.06
2023-01-19T03:38:55.454Z,99761.94
2023-01-19T03:41:24.616Z,99763.59
2023-01-19T03:43:53.598Z,99771.97
2023-01-19T03:46:21.173Z,99766.81
2023-01-19T03:48:48.358Z,99772.03
2023-01-19T03:51:16.270Z,99785.41
2023-01-19T03:53:43.097Z,99785.41
2023-01-19T03:56:20.359Z,99785.31
2023-01-19T03:58:46.749Z,99786.06
2023-01-19T04:01:14.926Z,99794.44
2023-01-19T04:03:42.291Z,99800.28
2023-01-19T04:06:09.878Z,99793.41
2023-01-19T04:08:37.007Z,99796.94
2023-01-19T04:11:03.681Z,99796.13
2023-01-19T04:13:30.520Z,99789.38
2023-01-19T04:16:04.738Z,99786.06
2023-01-19T04:18:33.917Z,99787.72
2023-01-19T04:21:06.271Z,99791.81
2023-01-19T04:23:33.752Z,99789.31
2023-01-19T04:26:04.979Z,99786.59
2023-01-19T04:28:32.555Z,99782.25
2023-01-19T04:30:59.319Z,99797.38
2023-01-19T04:33:27.707Z,99786.09
2023-01-19T04:35:56.081Z,99785.06
2023-01-19T04:38:23.844Z,99785.06
2023-01-19T04:40:51.136Z,99784.09
2023-01-19T04:43:17.694Z,99787.41
2023-01-19T04:45:44.815Z,99793.38
2023-01-19T04:48:12.054Z,99794.31
2023-01-19T04:50:39.250Z,99814.16
2023-01-19T04:53:05.781Z,99809.25
2023-01-19T04:55:32.234Z,99812.16
2023-01-19T04:57:58.763Z,99804.69
2023-01-19T05:00:26.749Z,99815.28
2023-01-19T05:02:53.915Z,99794.09
2023-01-19T05:05:20.513Z,99810.75
2023-01-19T05:07:46.976Z,99806.91
2023-01-19T05:10:13.781Z,99811.84
2023-01-19T05:12:40.280Z,99801.34
2023-01-19T05:15:07.875Z,99810.16
2023-01-19T05:17:34.525Z,99818.91
2023-01-19T05:20:01.015Z,99817.09
2023-01-19T05:22:27.585Z,99826.16
2023-01-19T05:24:54.406Z,99824.19
2023-01-19T05:27:21.025Z,99829.84
2023-01-19T05:29:47.469Z,99837.09
2023-01-19T05:32:13.943Z,99835.81
2023-01-19T05:34:40.910Z,99830.06
2023-01-19T05:37:07.422Z,99836.22
2023-01-19T05:39:34.081Z,99832.09
2023-01-19T05:42:00.525Z,99836.66
2023-01-19T05:44:27.003Z,99845.81
2023-01-19T05:46:53.511Z,99844.44
2023-01-19T05:49:20.025Z,99837.72
2023-01-19T05:51:46.495Z,99844.56
2023-01-19T05:54:15.464Z,99847.22
2023-01-19T05:56:42.600Z,99833.69
2023-01-19T05:59:09.530Z,99841.25
2023-01-19T06:01:38.911Z,99843.81
2023-01-19T06:04:06.464Z,99852.41
2023-01-19T06:06:33.091Z,99860.88
2023-01-19T06:08:59.570Z,99855.53
2023-01-19T06:11:26.229Z,99860.81
2023-01-19T06:13:52.967Z,99847.97
2023-01-19T06:16:19.603Z,99851.44
2023-01-19T06:18:46.164Z,99862.31
2023-01-19T06:21:14.261Z,99860.59
2023-01-19T06:23:41.217Z,99855.53
2023-01-19T06:26:07.903Z,99857.06
2023-01-19T06:28:34.516Z,99868.16
2023-01-19T06:31:01.131Z,99867.31
2023-01-19T06:33:28.063Z,99862.09
2023-01-19T06:35:55.498Z,99872.25
2023-01-19T06:38:22.422Z,99871.56
2023-01-19T06:40:54.610Z,99862.25
2023-01-19T06:43:21.406Z,99863.91
2023-01-19T06:45:48.078Z,99879.41
2023-01-19T06:48:15.136Z,99880.00
2023-01-19T06:50:41.613Z,99885.16
2023-01-19T06:53:08.058Z,99887.66
2023-01-19T06:55:36.439Z,99888.41
2023-01-19T06:58:03.233Z,99891.72
2023-01-19T07:00:29.712Z,99899.38
2023-01-19T07:02:56.638Z,99904.34
2023-01-19T07:05:23.119Z,99906.78
2023-01-19T07:07:53.710Z,99912.69
2023-01-19T07:10:20.414Z,99912.69
2023-01-19T07:12:47.481Z,99921.13
2023-01-19T07:15:16.196Z,99917.75
2023-01-19T07:17:43.152Z,99925.25
2023-01-19T07:20:13.024Z,99924.47
2023-01-19T07:22:40.260Z,99913.22
2023-01-19T07:25:07.389Z,99913.16
2023-01-19T07:27:33.910Z,99923.38
2023-01-19T07:30:01.216Z,99920.72
2023-01-19T07:32:28.923Z,99930.00
2023-01-19T07:34:55.388Z,99921.47
2023-01-19T07:37:22.452Z,99920.50
2023-01-19T07:39:48.959Z,99917.88
2023-01-19T07:42:15.512Z,99928.97
2023-01-19T07:44:42.270Z,99933.22
2023-01-19T07:47:11.306Z,99933.22
2023-01-19T07:49:38.003Z,99930.56
2023-01-19T07:52:04.709Z,99940.91
2023-01-19T07:54:31.174Z,99954.56
2023-01-19T07:56:57.716Z,99953.63
2023-01-19T07:59:24.265Z,99954.38
2023-01-19T08:01:50.931Z,99967.22
2023-01-19T08:04:19.080Z,99969.66
2023-01-19T08:06:47.185Z,99973.94
2023-01-19T08:09:13.632Z,99983.31
2023-01-19T08:11:40.370Z,99971.22
2023-01-19T08:14:08.048Z,99974.69
2023-01-19T08:16:35.108Z,99984.91
2023-01-19T08:19:01.790Z,99978.03
2023-01-19T08:21:28.398Z,99986.63
2023-01-19T08:23:56.152Z,99995.94
2023-01-19T08:26:29.316Z,99983.84
2023-01-19T08:29:00.771Z,99985.50
2023-01-19T08:31:27.879Z,100001.78
2023-01-19T08:33:54.463Z,100000.94
2023-01-19T08:36:22.543Z,99990.66
2023-01-19T08:38:49.045Z,100004.41
2023-01-19T08:41:18.445Z,100007.75
2023-01-19T08:43:45.559Z,100006.91
2023-01-19T08:46:12.493Z,100009.13
2023-01-19T08:48:40.008Z,100016.72
2023-01-19T08:51:06.757Z,100022.53
2023-01-19T08:53:33.344Z,100022.38
2023-01-19T08:56:03.483Z,100024.88
2023-01-19T08:58:30.044Z,100021.25
2023-01-19T09:00:56.615Z,100025.59
2023-01-19T09:03:23.210Z,100032.28
2023-01-19T09:05:50.356Z,100045.94
2023-01-19T09:08:17.186Z,100045.84
2023-01-19T09:10:49.075Z,100039.09
2023-01-19T09:13:16.665Z,100044.13
2023-01-19T09:15:43.567Z,100045.09
2023-01-19T09:18:15.669Z,100053.00
2023-01-19T09:20:43.706Z,100052.59
2023-01-19T09:23:15.867Z,100053.38
2023-01-19T09:25:44.172Z,100055.38
2023-01-19T09:28:12.746Z,100063.28
2023-01-19T09:30:41.119Z,100066.56
2023-01-19T09:33:13.024Z,100065.66
2023-01-19T09:35:40.399Z,100064.13
2023-01-19T09:38:08.874Z,100070.78
2023-01-19T09:40:42.191Z,100077.47
2023-01-19T09:43:19.292Z,100073.94
2023-01-19T09:45:51.869Z,100088.28
2023-01-19T09:48:31.921Z,100083.00
2023-01-19T09:51:04.284Z,100082.88
2023-01-19T09:53:44.379Z,100086.06
2023-01-19T09:56:15.888Z,100096.97
2023-01-19T09:58:42.528Z,100103.72
2023-01-19T10:01:36.605Z,100100.84
2023-01-19T10:04:26.866Z,100104.88
2023-01-19T10:07:02.406Z,100106.63
2023-01-19T10:09:33.198Z,100105.50
2023-01-19T10:12:19.841Z,100114.81
2023-01-19T10:14:58.343Z,100117.22
2023-01-19T10:17:30.612Z,100119.78
2023-01-19T10:20:02.030Z,100125.94
2023-01-19T10:22:28.984Z,100121.41
2023-01-19T10:25:06.026Z,100123.81
2023-01-19T10:27:34.936Z,100115.97
2023-01-19T10:30:01.952Z,100129.53
2023-01-19T10:32:32.786Z,100117.34
2023-01-19T10:35:00.028Z,100117.19
2023-01-19T10:37:34.228Z,100128.38
2023-01-19T10:40:09.974Z,100121.50
2023-01-19T10:42:38.523Z,100115.59
2023-01-19T10:45:26.932Z,100129.00
2023-01-19T10:47:57.724Z,100131.66
2023-01-19T10:50:24.338Z,100125.66
2023-01-19T10:52:53.080Z,100127.25
2023-01-19T10:55:39.821Z,100132.13
2023-01-19T10:58:25.633Z,100126.66
2023-01-19T11:00:52.467Z,100128.41
2023-01-19T11:03:29.206Z,100126.53
2023-01-19T11:06:20.553Z,100131.28
2023-01-19T11:08:51.246Z,100138.28
2023-01-19T11:11:20.249Z,100138.03
2023-01-19T11:14:03.354Z,100127.75
2023-01-19T11:16:32.277Z,100130.72
2023-01-19T11:19:02.032Z,100131.22
2023-01-19T11:21:30.477Z,100129.09
2023-01-19T11:24:02.361Z,100125.84
2023-01-19T11:26:57.488Z,100133.16
2023-01-19T11:29:26.735Z,100137.34
2023-01-19T11:31:54.899Z,100144.22
2023-01-19T11:34:36.732Z,100136.59
2023-01-19T11:37:18.417Z,100144.09
2023-01-19T11:39:57.769Z,100142.25
2023-01-19T11:42:25.356Z,100143.41
2023-01-19T11:44:57.974Z,100139.91
2023-01-19T11:47:38.301Z,100149.22
2023-01-19T11:50:13.619Z,100152.50
2023-01-19T11:52:48.220Z,100149.75
2023-01-19T11:55:40.831Z,100141.28
2023-01-19T11:58:09.334Z,100141.28
2023-01-19T12:00:45.243Z,100133.41
2023-01-19T12:03:26.083Z,100138.00
2023-01-19T12:05:57.074Z,100136.78
2023-01-19T12:08:30.197Z,100134.13
2023-01-19T12:10:59.885Z,100138.38
2023-01-19T12:13:27.834Z,100141.09
2023-01-19T12:16:21.314Z,100132.94
2023-01-19T12:19:15.919Z,100135.75
2023-01-19T12:21:42.895Z,100137.50
2023-01-19T12:24:30.382Z,100131.56
2023-01-19T12:27:01.094Z,100140.16
2023-01-19T12:29:33.765Z,100139.91
2023-01-19T12:32:20.151Z,100128.69
2023-01-19T12:34:50.864Z,100135.28
2023-01-19T12:37:36.403Z,100133.47
2023-01-19T12:40:18.951Z,100134.59
2023-01-19T12:43:04.856Z,100138.75
2023-01-19T12:45:36.914Z,100147.09
2023-01-19T12:48:04.846Z,100142.25
2023-01-19T12:50:37.830Z,100152.56
2023-01-19T12:53:15.649Z,100143.41
2023-01-19T12:55:46.587Z,100142.88
2023-01-19T12:58:24.564Z,100134.09
2023-01-19T13:01:15.611Z,100138.41
2023-01-19T13:03:59.354Z,100135.75
2023-01-19T13:06:49.164Z,100133.63
2023-01-19T13:09:30.523Z,100144.69
2023-01-19T13:12:15.372Z,100148.28
2023-01-19T13:14:43.202Z,100156.91
2023-01-19T13:17:19.294Z,100147.25
2023-01-19T13:19:52.242Z,100158.78
2023-01-19T13:22:47.234Z,100151.06
2023-01-19T13:25:26.710Z,100143.09
2023-01-19T13:27:53.955Z,100146.72
2023-01-19T13:30:23.433Z,100167.25
2023-01-19T13:32:50.372Z,100159.59
2023-01-19T13:35:20.131Z,100159.66
2023-01-19T13:37:47.640Z,100143.56
2023-01-19T13:40:36.969Z,100158.19
2023-01-19T13:43:04.476Z,100149.94
2023-01-19T13:45:38.074Z,100169.63
2023-01-19T13:48:14.924Z,100167.22
2023-01-19T13:50:42.737Z,100169.00
2023-01-19T13:53:20.763Z,100179.63
2023-01-19T13:55:50.054Z,100174.84
2023-01-19T13:58:35.071Z,100187.19
2023-01-19T14:01:02.234Z,100184.56
2023-01-19T14:03:28.870Z,100182.72
2023-01-19T14:05:55.566Z,100180.50
2023-01-19T14:08:23.090Z,100185.06
2023-01-19T14:11:00.139Z,100189.31
2023-01-19T14:13:41.610Z,100193.94
2023-01-19T14:16:16.264Z,100202.09
2023-01-19T14:18:42.856Z,100203.97
2023-01-19T14:21:14.810Z,100195.28
2023-01-19T14:23:55.116Z,100205.16
2023-01-19T14:26:43.497Z,100195.00
2023-01-19T14:29:09.962Z,100199.41
2023-01-19T14:31:48.029Z,100198.75
2023-01-19T14:34:32.062Z,100191.81
2023-01-19T14:36:58.926Z,100189.31
2023-01-19T14:39:29.614Z,100191.81
2023-01-19T14:41:59.621Z,100196.84
2023-01-19T14:44:28.895Z,100193.19
2023-01-19T14:46:56.491Z,100200.69
2023-01-19T14:49:33.735Z,100202.25
2023-01-19T14:52:06.771Z,100204.66
2023-01-19T14:54:40.930Z,100200.22
2023-01-19T14:57:13.111Z,100209.31
2023-01-19T14:59:40.550Z,100202.28
2023-01-19T15:02:07.681Z,100201.22
2023-01-19T15:04:37.637Z,100209.56
2023-01-19T15:07:04.679Z,100210.97
2023-01-19T15:09:31.136Z,100216.69
2023-01-19T15:11:58.264Z,100203.78
2023-01-19T15:14:24.824Z,100212.03
2023-01-19T15:16:51.441Z,100214.59
2023-01-19T15:19:18.542Z,100219.59
2023-01-19T15:21:46.818Z,100216.03
2023-01-19T15:24:14.878Z,100213.63
2023-01-19T15:26:42.824Z,100226.56
2023-01-19T15:29:25.396Z,100226.66
2023-01-19T15:31:52.521Z,100237.94
2023-01-19T15:34:19.167Z,100236.66
2023-01-19T15:36:45.687Z,100230.75
2023-01-19T15:39:12.176Z,100240.47
2023-01-19T15:41:40.953Z,100224.50
2023-01-19T15:44:10.126Z,100224.75
2023-01-19T15:46:37.163Z,100234.97
2023-01-19T15:49:05.794Z,100230.59
2023-01-19T15:51:32.944Z,100240.13
2023-01-19T15:53:59.734Z,100234.16
2023-01-19T15:56:30.802Z,100209.94
2023-01-19T15:58:58.136Z,100230.59
2023-01-19T16:01:34.681Z,100235.63
2023-01-19T16:04:03.742Z,100243.25
2023-01-19T16:06:31.253Z,100234.41
2023-01-19T16:09:01.666Z,100201.69
2023-01-19T16:11:31.889Z,100235.00
2023-01-19T16:13:58.511Z,100231.84
2023-01-19T16:16:26.661Z,100230.88
2023-01-19T16:18:53.491Z,100234.28
2023-01-19T16:21:20.101Z,100241.09
2023-01-19T16:23:46.618Z,100242.00
2023-01-19T16:26:32.189Z,100240.47
2023-01-19T16:29:01.026Z,100247.09
2023-01-19T16:31:28.563Z,100172.75
2023-01-19T16:33:55.504Z,100217.75
2023-01-19T16:36:30.943Z,100246.03
2023-01-19T16:39:02.746Z,100247.09
2023-01-19T16:41:29.443Z,100251.94
2023-01-19T16:43:57.608Z,100191.25
2023-01-19T16:46:27.434Z,100254.44
2023-01-19T16:48:59.179Z,100260.50
2023-01-19T16:51:25.774Z,100257.03
2023-01-19T16:53:52.261Z,100265.44
2023-01-19T16:56:19.163Z,100262.72
2023-01-19T16:58:46.346Z,100232.84
2023-01-19T17:01:20.409Z,100276.34
2023-01-19T17:03:47.960Z,100282.34
2023-01-19T17:06:22.568Z,100281.44
2023-01-19T17:08:50.076Z,100278.84
2023-01-19T17:11:20.937Z,100284.16
2023-01-19T17:13:56.624Z,100265.94
2023-01-19T17:16:24.722Z,100280.19
2023-01-19T17:18:53.077Z,100289.56
2023-01-19T17:21:20.266Z,100241.88
2023-01-19T17:23:49.028Z,100287.53
2023-01-19T17:26:17.030Z,100279.81
2023-01-19T17:28:44.289Z,100297.72
2023-01-19T17:31:12.457Z,100290.69
2023-01-19T17:33:39.957Z,100295.06
2023-01-19T17:36:10.062Z,100302.66
2023-01-19T17:38:37.103Z,100308.78
2023-01-19T17:41:12.417Z,100312.03
2023-01-19T17:43:38.888Z,100313.75
2023-01-19T17:46:05.766Z,100306.19
2023-01-19T17:48:32.325Z,100306.19
2023-01-19T17:51:03.483Z,100308.06
2023-01-19T17:53:30.000Z,100297.03
2023-01-19T17:56:03.194Z,100314.06
2023-01-19T17:58:31.240Z,100309.19
2023-01-19T18:00:58.545Z,100289.28
2023-01-19T18:03:25.076Z,100306.94
2023-01-19T18:05:55.662Z,100310.34
2023-01-19T18:08:22.503Z,100310.56
2023-01-19T18:10:56.923Z,100304.97
2023-01-19T18:13:24.175Z,100320.09
2023-01-19T18:15:50.806Z,100326.16
2023-01-19T18:18:18.285Z,100322.91
2023-01-19T18:20:44.753Z,100313.59
2023-01-19T18:23:11.814Z,100317.28
2023-01-19T18:25:39.626Z,100314.84
2023-01-19T18:28:07.133Z,100320.09
2023-01-19T18:30:37.206Z,100325.41
2023-01-19T18:33:04.144Z,100323.72
2023-01-19T18:35:30.680Z,100322.16
2023-01-19T18:37:58.573Z,100317.31
2023-01-19T18:40:25.575Z,100324.88
2023-01-19T18:42:52.149Z,100327.44
2023-01-19T18:45:18.600Z,100327.59
2023-01-19T18:47:45.182Z,100328.56
2023-01-19T18:50:14.103Z,100328.56
2023-01-19T18:52:40.830Z,100328.69
2023-01-19T18:55:07.624Z,100325.28
2023-01-19T18:57:35.707Z,100327.78
2023-01-19T19:00:03.381Z,100329.56
2023-01-19T19:02:29.974Z,100272.19
2023-01-19T19:04:56.505Z,100252.94
2023-01-19T19:07:23.001Z,100332.47
2023-01-19T19:09:49.514Z,100328.28
2023-01-19T19:12:16.109Z,100335.19
2023-01-19T19:14:42.688Z,100337.00
2023-01-19T19:17:09.206Z,100312.72
2023-01-19T19:19:35.881Z,100345.00
2023-01-19T19:22:02.394Z,100346.09
2023-01-19T19:24:29.050Z,100345.44
2023-01-19T19:26:55.653Z,100343.72
2023-01-19T19:29:22.449Z,100279.41
2023-01-19T19:31:49.096Z,100346.41
2023-01-19T19:34:15.625Z,100349.94
2023-01-19T19:36:42.259Z,100352.59
2023-01-19T19:39:08.847Z,100353.44
2023-01-19T19:41:38.303Z,100355.44
2023-01-19T19:44:04.921Z,100354.41
2023-01-19T19:46:31.552Z,100356.06
2023-01-19T19:48:58.233Z,100359.69
2023-01-19T19:51:27.112Z,100355.31
2023-01-19T19:53:59.023Z,100365.53
2023-01-19T19:56:28.045Z,100356.97
2023-01-19T19:58:56.287Z,100362.00
2023-01-19T20:01:28.591Z,100364.59
2023-01-19T20:03:59.906Z,100367.00
2023-01-19T20:06:27.623Z,100339.72
2023-01-19T20:08:56.119Z,100374.84
2023-01-19T20:11:26.394Z,100381.72
2023-01-19T20:13:53.323Z,100379.16
2023-01-19T20:16:22.107Z,100339.88
2023-01-19T20:18:56.770Z,100394.88
2023-01-19T20:21:29.696Z,100363.69
2023-01-19T20:24:00.173Z,100387.25
2023-01-19T20:26:30.547Z,100389.97
2023-01-19T20:28:59.825Z,100399.34
2023-01-19T20:31:29.345Z,100399.47
2023-01-19T20:33:58.136Z,100397.00
2023-01-19T20:36:26.114Z,100378.56
2023-01-19T20:38:53.938Z,100402.13
2023-01-19T20:41:22.137Z,100397.00
2023-01-19T20:43:48.908Z,100402.09
2023-01-19T20:46:15.892Z,100413.13
2023-01-19T20:48:42.389Z,100414.81
2023-01-19T20:51:11.941Z,100403.75
2023-01-19T20:53:39.986Z,100414.75
2023-01-19T20:56:10.992Z,100415.66
2023-01-19T20:58:38.015Z,100404.84
2023-01-19T21:01:17.349Z,100428.44
2023-01-19T21:03:44.158Z,100428.50
2023-01-19T21:06:11.894Z,100433.63
2023-01-19T21:08:38.920Z,100442.19
2023-01-19T21:11:06.951Z,100404.34
2023-01-19T21:13:34.215Z,100438.00
2023-01-19T21:16:01.316Z,100448.09
2023-01-19T21:18:28.048Z,100440.47
2023-01-19T21:20:58.173Z,100451.44
2023-01-19T21:23:26.742Z,100454.31
2023-01-19T21:25:55.930Z,100462.66
2023-01-19T21:28:23.105Z,100469.53
2023-01-19T21:30:51.013Z,100465.31
2023-01-19T21:33:17.697Z,100463.72
2023-01-19T21:35:57.472Z,100474.91
2023-01-19T21:38:29.834Z,100484.31
2023-01-19T21:40:57.639Z,100480.94
2023-01-19T21:43:25.472Z,100481.75
2023-01-19T21:45:52.506Z,100480.09
2023-01-19T21:48:19.802Z,100487.91
2023-01-19T21:50:46.461Z,100485.13
2023-01-19T21:53:12.981Z,100503.88
2023-01-19T21:55:44.454Z,100502.97
2023-01-19T21:58:11.003Z,100510.56
2023-01-19T22:00:37.549Z,100508.06
2023-01-19T22:03:04.876Z,100507.06
2023-01-19T22:05:36.772Z,100509.56
2023-01-19T22:08:04.457Z,100481.88
2023-01-19T22:10:30.950Z,100519.53
2023-01-19T22:12:57.461Z,100517.94
2023-01-19T22:15:24.046Z,100522.97
2023-01-19T22:17:50.540Z,100528.09
2023-01-19T22:20:17.328Z,100537.47
2023-01-19T22:22:43.801Z,100534.91
2023-01-19T22:25:10.415Z,100488.03
2023-01-19T22:27:37.448Z,100535.09
2023-01-19T22:30:04.196Z,100530.72
2023-01-19T22:32:31.316Z,100535.13
2023-01-19T22:34:57.880Z,100529.94
2023-01-19T22:37:24.411Z,100497.34
2023-01-19T22:39:50.851Z,100526.44
2023-01-19T22:42:17.389Z,100526.47
2023-01-19T22:44:44.253Z,100529.81
2023-01-19T22:47:10.677Z,100538.25
2023-01-19T22:49:37.216Z,100536.72
2023-01-19T22:52:03.869Z,100534.19
2023-01-19T22:54:30.343Z,100547.63
2023-01-19T22:56:56.773Z,100551.16
2023-01-19T22:59:23.247Z,100559.53
2023-01-19T23:01:49.987Z,100544.06
2023-01-19T23:04:16.651Z,100552.59
2023-01-19T23:06:43.586Z,100554.34
2023-01-19T23:09:14.314Z,100552.50
2023-01-19T23:11:43.341Z,100563.56
2023-01-19T23:14:14.721Z,100561.75
2023-01-19T23:16:41.595Z,100527.44
2023-01-19T23:19:08.085Z,100567.84
2023-01-19T23:21:34.698Z,100551.69
2023-01-19T23:24:03.245Z,100556.84
2023-01-19T23:26:30.863Z,100556.78
2023-01-19T23:28:59.897Z,100572.25
2023-01-19T23:31:31.994Z,100562.88
2023-01-19T23:34:00.785Z,100571.38
2023-01-19T23:36:29.677Z,100528.97
2023-01-19T23:39:01.548Z,100576.69
2023-01-19T23:41:30.582Z,100575.91
2023-01-19T23:43:57.215Z,100576.84
2023-01-19T23:46:24.180Z,100569.38
2023-01-19T23:48:50.669Z,100570.97
2023-01-19T23:51:23.431Z,100585.63
2023-01-19T23:53:50.711Z,100578.81
2023-01-19T23:56:18.781Z,100576.44
2023-01-19T23:58:53.130Z,100577.47
